sensor_id;sensor_type;location;lat;lon;timestamp;P1;durP1;ratioP1;P2;durP2;ratioP2
73437;SDS011;62744;56.802;23.964;2022-11-03T00:02:06;15.85;;;8.43;;
73437;SDS011;62744;56.802;23.964;2022-11-03T00:04:33;13.48;;;8.30;;
73437;SDS011;62744;56.802;23.964;2022-11-03T00:07:01;15.50;;;7.53;;
73437;SDS011;62744;56.802;23.964;2022-11-03T00:09:29;31.90;;;9.27;;
73437;SDS011;62744;56.802;23.964;2022-11-03T00:11:58;17.75;;;9.45;;
73437;SDS011;62744;56.802;23.964;2022-11-03T00:14:26;21.67;;;10.13;;
73437;SDS011;62744;56.802;23.964;2022-11-03T00:16:54;20.58;;;9.23;;
73437;SDS011;62744;56.802;23.964;2022-11-03T00:19:21;24.35;;;10.20;;
73437;SDS011;62744;56.802;23.964;2022-11-03T00:21:49;32.22;;;9.13;;
73437;SDS011;62744;56.802;23.964;2022-11-03T00:24:18;16.90;;;9.13;;
73437;SDS011;62744;56.802;23.964;2022-11-03T00:26:45;32.40;;;9.00;;
73437;SDS011;62744;56.802;23.964;2022-11-03T00:29:13;15.85;;;8.80;;
73437;SDS011;62744;56.802;23.964;2022-11-03T00:31:42;25.38;;;8.35;;
73437;SDS011;62744;56.802;23.964;2022-11-03T00:34:10;44.60;;;8.93;;
73437;SDS011;62744;56.802;23.964;2022-11-03T00:36:39;27.02;;;9.15;;
73437;SDS011;62744;56.802;23.964;2022-11-03T00:39:08;25.52;;;8.98;;
73437;SDS011;62744;56.802;23.964;2022-11-03T00:41:37;21.30;;;9.48;;
73437;SDS011;62744;56.802;23.964;2022-11-03T00:44:05;18.05;;;8.98;;
73437;SDS011;62744;56.802;23.964;2022-11-03T00:46:36;17.52;;;8.52;;
73437;SDS011;62744;56.802;23.964;2022-11-03T00:49:04;16.80;;;9.18;;
73437;SDS011;62744;56.802;23.964;2022-11-03T00:51:32;18.43;;;8.30;;
73437;SDS011;62744;56.802;23.964;2022-11-03T00:54:03;16.35;;;8.80;;
73437;SDS011;62744;56.802;23.964;2022-11-03T00:56:33;16.75;;;8.63;;
73437;SDS011;62744;56.802;23.964;2022-11-03T00:59:05;17.27;;;9.15;;
73437;SDS011;62744;56.802;23.964;2022-11-03T01:01:35;16.35;;;8.60;;
73437;SDS011;62744;56.802;23.964;2022-11-03T01:04:13;30.88;;;8.85;;
73437;SDS011;62744;56.802;23.964;2022-11-03T01:07:00;15.60;;;9.00;;
73437;SDS011;62744;56.802;23.964;2022-11-03T01:09:29;21.30;;;9.05;;
73437;SDS011;62744;56.802;23.964;2022-11-03T01:12:07;15.48;;;8.88;;
73437;SDS011;62744;56.802;23.964;2022-11-03T01:17:13;20.47;;;10.90;;
73437;SDS011;62744;56.802;23.964;2022-11-03T01:19:44;16.63;;;9.05;;
73437;SDS011;62744;56.802;23.964;2022-11-03T01:22:13;20.33;;;10.35;;
73437;SDS011;62744;56.802;23.964;2022-11-03T01:24:41;21.98;;;11.30;;
73437;SDS011;62744;56.802;23.964;2022-11-03T01:27:10;24.13;;;12.02;;
73437;SDS011;62744;56.802;23.964;2022-11-03T01:29:42;30.02;;;15.80;;
73437;SDS011;62744;56.802;23.964;2022-11-03T01:32:10;27.50;;;13.32;;
73437;SDS011;62744;56.802;23.964;2022-11-03T01:34:38;22.20;;;11.55;;
73437;SDS011;62744;56.802;23.964;2022-11-03T01:37:06;20.70;;;9.95;;
73437;SDS011;62744;56.802;23.964;2022-11-03T01:39:34;19.73;;;10.85;;
73437;SDS011;62744;56.802;23.964;2022-11-03T01:42:01;20.02;;;10.07;;
73437;SDS011;62744;56.802;23.964;2022-11-03T01:44:34;15.85;;;8.90;;
73437;SDS011;62744;56.802;23.964;2022-11-03T01:47:27;18.50;;;9.48;;
73437;SDS011;62744;56.802;23.964;2022-11-03T01:50:05;19.75;;;9.57;;
73437;SDS011;62744;56.802;23.964;2022-11-03T01:52:38;19.90;;;9.18;;
73437;SDS011;62744;56.802;23.964;2022-11-03T01:55:21;15.95;;;9.50;;
73437;SDS011;62744;56.802;23.964;2022-11-03T02:00:24;16.65;;;9.07;;
73437;SDS011;62744;56.802;23.964;2022-11-03T02:02:52;14.55;;;8.65;;
73437;SDS011;62744;56.802;23.964;2022-11-03T02:05:20;15.32;;;9.25;;
73437;SDS011;62744;56.802;23.964;2022-11-03T02:10:59;18.85;;;8.98;;
73437;SDS011;62744;56.802;23.964;2022-11-03T02:13:47;17.58;;;9.10;;
73437;SDS011;62744;56.802;23.964;2022-11-03T02:16:14;18.45;;;10.27;;
73437;SDS011;62744;56.802;23.964;2022-11-03T02:18:43;14.18;;;8.38;;
73437;SDS011;62744;56.802;23.964;2022-11-03T02:21:26;13.45;;;7.40;;
73437;SDS011;62744;56.802;23.964;2022-11-03T02:26:58;15.95;;;8.13;;
73437;SDS011;62744;56.802;23.964;2022-11-03T02:29:25;15.73;;;7.88;;
73437;SDS011;62744;56.802;23.964;2022-11-03T02:32:03;17.15;;;8.93;;
73437;SDS011;62744;56.802;23.964;2022-11-03T02:34:48;16.05;;;8.15;;
73437;SDS011;62744;56.802;23.964;2022-11-03T02:37:38;16.05;;;7.38;;
73437;SDS011;62744;56.802;23.964;2022-11-03T02:40:13;14.18;;;7.38;;
73437;SDS011;62744;56.802;23.964;2022-11-03T02:42:49;15.15;;;9.13;;
73437;SDS011;62744;56.802;23.964;2022-11-03T02:45:20;13.52;;;7.53;;
73437;SDS011;62744;56.802;23.964;2022-11-03T02:47:52;18.45;;;9.13;;
73437;SDS011;62744;56.802;23.964;2022-11-03T02:50:29;17.35;;;9.05;;
73437;SDS011;62744;56.802;23.964;2022-11-03T02:52:59;15.35;;;8.65;;
73437;SDS011;62744;56.802;23.964;2022-11-03T02:55:37;16.10;;;7.82;;
73437;SDS011;62744;56.802;23.964;2022-11-03T03:01:13;17.92;;;9.07;;
73437;SDS011;62744;56.802;23.964;2022-11-03T03:04:19;14.82;;;9.18;;
73437;SDS011;62744;56.802;23.964;2022-11-03T03:06:55;16.08;;;9.15;;
73437;SDS011;62744;56.802;23.964;2022-11-03T03:09:29;16.45;;;9.13;;
73437;SDS011;62744;56.802;23.964;2022-11-03T03:12:07;18.55;;;9.30;;
73437;SDS011;62744;56.802;23.964;2022-11-03T03:14:38;14.02;;;8.15;;
73437;SDS011;62744;56.802;23.964;2022-11-03T03:23:00;16.98;;;9.10;;
73437;SDS011;62744;56.802;23.964;2022-11-03T03:25:40;18.13;;;9.43;;
73437;SDS011;62744;56.802;23.964;2022-11-03T03:28:14;16.02;;;9.93;;
73437;SDS011;62744;56.802;23.964;2022-11-03T03:30:47;20.70;;;9.75;;
73437;SDS011;62744;56.802;23.964;2022-11-03T03:33:17;16.30;;;9.57;;
73437;SDS011;62744;56.802;23.964;2022-11-03T03:35:46;17.83;;;8.02;;
73437;SDS011;62744;56.802;23.964;2022-11-03T03:38:17;18.23;;;9.45;;
73437;SDS011;62744;56.802;23.964;2022-11-03T03:40:52;18.35;;;9.55;;
73437;SDS011;62744;56.802;23.964;2022-11-03T03:43:23;17.58;;;9.77;;
73437;SDS011;62744;56.802;23.964;2022-11-03T03:45:53;18.88;;;10.40;;
73437;SDS011;62744;56.802;23.964;2022-11-03T03:48:22;20.83;;;10.48;;
73437;SDS011;62744;56.802;23.964;2022-11-03T03:50:50;15.88;;;9.63;;
73437;SDS011;62744;56.802;23.964;2022-11-03T03:53:18;21.63;;;11.38;;
73437;SDS011;62744;56.802;23.964;2022-11-03T03:55:48;20.35;;;10.45;;
73437;SDS011;62744;56.802;23.964;2022-11-03T03:58:17;22.98;;;11.50;;
73437;SDS011;62744;56.802;23.964;2022-11-03T04:00:45;21.02;;;10.35;;
73437;SDS011;62744;56.802;23.964;2022-11-03T04:03:15;25.67;;;11.95;;
73437;SDS011;62744;56.802;23.964;2022-11-03T04:05:47;21.08;;;10.55;;
73437;SDS011;62744;56.802;23.964;2022-11-03T04:08:15;23.58;;;12.00;;
73437;SDS011;62744;56.802;23.964;2022-11-03T04:10:44;21.90;;;11.07;;
73437;SDS011;62744;56.802;23.964;2022-11-03T04:13:32;24.30;;;11.18;;
73437;SDS011;62744;56.802;23.964;2022-11-03T04:16:18;24.95;;;12.00;;
73437;SDS011;62744;56.802;23.964;2022-11-03T04:19:04;25.25;;;11.23;;
73437;SDS011;62744;56.802;23.964;2022-11-03T04:21:50;19.20;;;9.82;;
73437;SDS011;62744;56.802;23.964;2022-11-03T04:24:36;22.02;;;10.32;;
73437;SDS011;62744;56.802;23.964;2022-11-03T04:29:56;21.23;;;9.98;;
73437;SDS011;62744;56.802;23.964;2022-11-03T04:32:44;20.83;;;10.15;;
73437;SDS011;62744;56.802;23.964;2022-11-03T04:35:17;23.73;;;11.38;;
73437;SDS011;62744;56.802;23.964;2022-11-03T04:37:59;26.33;;;10.70;;
73437;SDS011;62744;56.802;23.964;2022-11-03T04:40:30;22.15;;;11.05;;
73437;SDS011;62744;56.802;23.964;2022-11-03T04:42:59;24.65;;;10.80;;
73437;SDS011;62744;56.802;23.964;2022-11-03T04:45:30;24.33;;;11.43;;
73437;SDS011;62744;56.802;23.964;2022-11-03T04:48:00;25.63;;;12.60;;
73437;SDS011;62744;56.802;23.964;2022-11-03T04:50:37;26.60;;;13.70;;
73437;SDS011;62744;56.802;23.964;2022-11-03T04:53:16;30.27;;;12.15;;
73437;SDS011;62744;56.802;23.964;2022-11-03T04:55:45;23.83;;;11.52;;
73437;SDS011;62744;56.802;23.964;2022-11-03T04:58:19;25.03;;;11.63;;
73437;SDS011;62744;56.802;23.964;2022-11-03T05:00:52;24.67;;;11.45;;
73437;SDS011;62744;56.802;23.964;2022-11-03T05:03:24;26.55;;;11.27;;
73437;SDS011;62744;56.802;23.964;2022-11-03T05:05:55;22.27;;;11.07;;
73437;SDS011;62744;56.802;23.964;2022-11-03T05:08:22;21.60;;;10.35;;
73437;SDS011;62744;56.802;23.964;2022-11-03T05:10:50;21.00;;;10.90;;
73437;SDS011;62744;56.802;23.964;2022-11-03T05:13:23;23.95;;;10.43;;
73437;SDS011;62744;56.802;23.964;2022-11-03T05:15:55;24.92;;;11.15;;
73437;SDS011;62744;56.802;23.964;2022-11-03T05:21:00;30.70;;;14.32;;
73437;SDS011;62744;56.802;23.964;2022-11-03T05:23:31;29.40;;;14.13;;
73437;SDS011;62744;56.802;23.964;2022-11-03T05:26:07;24.85;;;12.50;;
73437;SDS011;62744;56.802;23.964;2022-11-03T05:28:46;21.52;;;11.82;;
73437;SDS011;62744;56.802;23.964;2022-11-03T05:34:01;21.33;;;11.27;;
73437;SDS011;62744;56.802;23.964;2022-11-03T05:36:39;23.48;;;10.52;;
73437;SDS011;62744;56.802;23.964;2022-11-03T05:39:16;26.02;;;10.63;;
73437;SDS011;62744;56.802;23.964;2022-11-03T05:41:54;25.10;;;11.25;;
73437;SDS011;62744;56.802;23.964;2022-11-03T05:44:24;21.30;;;11.60;;
73437;SDS011;62744;56.802;23.964;2022-11-03T05:47:11;22.77;;;11.35;;
73437;SDS011;62744;56.802;23.964;2022-11-03T05:49:46;25.13;;;12.02;;
73437;SDS011;62744;56.802;23.964;2022-11-03T05:52:18;34.17;;;16.35;;
73437;SDS011;62744;56.802;23.964;2022-11-03T05:54:50;36.35;;;19.90;;
73437;SDS011;62744;56.802;23.964;2022-11-03T05:57:21;24.38;;;11.60;;
73437;SDS011;62744;56.802;23.964;2022-11-03T05:59:49;20.05;;;10.57;;
73437;SDS011;62744;56.802;23.964;2022-11-03T06:02:36;18.92;;;10.25;;
73437;SDS011;62744;56.802;23.964;2022-11-03T06:05:11;20.35;;;10.45;;
73437;SDS011;62744;56.802;23.964;2022-11-03T06:07:48;22.13;;;10.88;;
73437;SDS011;62744;56.802;23.964;2022-11-03T06:10:20;22.38;;;10.32;;
73437;SDS011;62744;56.802;23.964;2022-11-03T06:12:53;25.80;;;10.90;;
73437;SDS011;62744;56.802;23.964;2022-11-03T06:15:28;20.85;;;10.25;;
73437;SDS011;62744;56.802;23.964;2022-11-03T06:17:58;23.83;;;10.80;;
73437;SDS011;62744;56.802;23.964;2022-11-03T06:20:28;20.83;;;11.13;;
73437;SDS011;62744;56.802;23.964;2022-11-03T06:22:56;29.88;;;13.73;;
73437;SDS011;62744;56.802;23.964;2022-11-03T06:25:27;30.27;;;14.60;;
73437;SDS011;62744;56.802;23.964;2022-11-03T06:28:02;34.63;;;16.70;;
73437;SDS011;62744;56.802;23.964;2022-11-03T06:30:48;34.58;;;15.20;;
73437;SDS011;62744;56.802;23.964;2022-11-03T06:33:18;33.95;;;15.75;;
73437;SDS011;62744;56.802;23.964;2022-11-03T06:35:51;26.85;;;12.77;;
73437;SDS011;62744;56.802;23.964;2022-11-03T06:38:27;20.58;;;10.00;;
73437;SDS011;62744;56.802;23.964;2022-11-03T06:40:56;23.53;;;11.30;;
73437;SDS011;62744;56.802;23.964;2022-11-03T06:43:33;29.60;;;13.20;;
73437;SDS011;62744;56.802;23.964;2022-11-03T06:46:04;30.08;;;15.23;;
73437;SDS011;62744;56.802;23.964;2022-11-03T06:48:44;20.10;;;9.05;;
73437;SDS011;62744;56.802;23.964;2022-11-03T06:51:17;18.55;;;9.43;;
73437;SDS011;62744;56.802;23.964;2022-11-03T06:53:47;14.52;;;7.90;;
73437;SDS011;62744;56.802;23.964;2022-11-03T06:56:18;18.05;;;7.75;;
73437;SDS011;62744;56.802;23.964;2022-11-03T06:58:48;21.75;;;10.57;;
73437;SDS011;62744;56.802;23.964;2022-11-03T07:01:21;16.13;;;7.68;;
73437;SDS011;62744;56.802;23.964;2022-11-03T07:03:55;14.77;;;7.25;;
73437;SDS011;62744;56.802;23.964;2022-11-03T07:06:30;17.40;;;7.82;;
73437;SDS011;62744;56.802;23.964;2022-11-03T07:09:05;15.48;;;6.43;;
73437;SDS011;62744;56.802;23.964;2022-11-03T07:11:43;20.02;;;6.95;;
73437;SDS011;62744;56.802;23.964;2022-11-03T07:14:37;12.48;;;6.55;;
73437;SDS011;62744;56.802;23.964;2022-11-03T07:17:05;15.50;;;6.63;;
73437;SDS011;62744;56.802;23.964;2022-11-03T07:19:41;13.30;;;6.15;;
73437;SDS011;62744;56.802;23.964;2022-11-03T07:22:15;14.82;;;6.72;;
73437;SDS011;62744;56.802;23.964;2022-11-03T07:24:50;15.73;;;6.95;;
73437;SDS011;62744;56.802;23.964;2022-11-03T07:27:30;16.80;;;6.72;;
73437;SDS011;62744;56.802;23.964;2022-11-03T07:32:48;15.07;;;6.65;;
73437;SDS011;62744;56.802;23.964;2022-11-03T07:35:33;12.18;;;6.40;;
73437;SDS011;62744;56.802;23.964;2022-11-03T07:38:23;12.50;;;5.22;;
73437;SDS011;62744;56.802;23.964;2022-11-03T07:40:52;16.13;;;6.10;;
73437;SDS011;62744;56.802;23.964;2022-11-03T07:43:27;18.02;;;7.40;;
73437;SDS011;62744;56.802;23.964;2022-11-03T07:45:59;12.10;;;5.97;;
73437;SDS011;62744;56.802;23.964;2022-11-03T07:51:00;13.50;;;5.97;;
73437;SDS011;62744;56.802;23.964;2022-11-03T07:53:43;11.73;;;4.88;;
73437;SDS011;62744;56.802;23.964;2022-11-03T07:56:19;14.32;;;5.45;;
73437;SDS011;62744;56.802;23.964;2022-11-03T07:58:52;11.52;;;6.13;;
73437;SDS011;62744;56.802;23.964;2022-11-03T08:01:28;10.80;;;6.05;;
73437;SDS011;62744;56.802;23.964;2022-11-03T08:04:06;15.98;;;6.95;;
73437;SDS011;62744;56.802;23.964;2022-11-03T08:06:39;17.58;;;6.57;;
73437;SDS011;62744;56.802;23.964;2022-11-03T08:09:06;14.80;;;7.00;;
73437;SDS011;62744;56.802;23.964;2022-11-03T08:11:34;17.98;;;7.10;;
73437;SDS011;62744;56.802;23.964;2022-11-03T08:14:01;15.13;;;5.82;;
73437;SDS011;62744;56.802;23.964;2022-11-03T08:16:29;14.52;;;5.10;;
73437;SDS011;62744;56.802;23.964;2022-11-03T08:18:57;10.20;;;4.75;;
73437;SDS011;62744;56.802;23.964;2022-11-03T08:21:25;10.75;;;5.47;;
73437;SDS011;62744;56.802;23.964;2022-11-03T08:23:52;12.05;;;5.03;;
73437;SDS011;62744;56.802;23.964;2022-11-03T08:26:20;15.05;;;5.50;;
73437;SDS011;62744;56.802;23.964;2022-11-03T08:28:48;15.23;;;5.60;;
73437;SDS011;62744;56.802;23.964;2022-11-03T08:31:15;13.85;;;5.57;;
73437;SDS011;62744;56.802;23.964;2022-11-03T08:33:43;12.23;;;5.70;;
73437;SDS011;62744;56.802;23.964;2022-11-03T08:36:11;12.27;;;4.88;;
73437;SDS011;62744;56.802;23.964;2022-11-03T08:38:39;13.10;;;5.45;;
73437;SDS011;62744;56.802;23.964;2022-11-03T08:41:06;13.98;;;5.20;;
73437;SDS011;62744;56.802;23.964;2022-11-03T08:43:34;11.13;;;4.25;;
73437;SDS011;62744;56.802;23.964;2022-11-03T08:46:01;13.32;;;5.95;;
73437;SDS011;62744;56.802;23.964;2022-11-03T08:48:42;18.55;;;6.43;;
73437;SDS011;62744;56.802;23.964;2022-11-03T08:51:10;10.38;;;5.43;;
73437;SDS011;62744;56.802;23.964;2022-11-03T08:53:40;13.32;;;6.80;;
73437;SDS011;62744;56.802;23.964;2022-11-03T08:56:08;15.40;;;7.63;;
73437;SDS011;62744;56.802;23.964;2022-11-03T08:58:40;14.60;;;6.80;;
73437;SDS011;62744;56.802;23.964;2022-11-03T09:01:11;12.77;;;5.78;;
73437;SDS011;62744;56.802;23.964;2022-11-03T09:03:39;11.63;;;5.38;;
73437;SDS011;62744;56.802;23.964;2022-11-03T09:06:07;16.23;;;7.90;;
73437;SDS011;62744;56.802;23.964;2022-11-03T09:08:35;11.35;;;5.28;;
73437;SDS011;62744;56.802;23.964;2022-11-03T09:11:22;13.15;;;5.28;;
73437;SDS011;62744;56.802;23.964;2022-11-03T09:13:50;11.90;;;6.05;;
73437;SDS011;62744;56.802;23.964;2022-11-03T09:16:18;17.25;;;7.60;;
73437;SDS011;62744;56.802;23.964;2022-11-03T09:18:46;18.20;;;8.02;;
73437;SDS011;62744;56.802;23.964;2022-11-03T09:21:13;19.15;;;8.80;;
73437;SDS011;62744;56.802;23.964;2022-11-03T09:23:41;13.80;;;5.90;;
73437;SDS011;62744;56.802;23.964;2022-11-03T09:26:08;23.08;;;8.63;;
73437;SDS011;62744;56.802;23.964;2022-11-03T09:28:36;18.02;;;7.28;;
73437;SDS011;62744;56.802;23.964;2022-11-03T09:31:03;21.20;;;8.73;;
73437;SDS011;62744;56.802;23.964;2022-11-03T09:33:31;14.07;;;5.72;;
73437;SDS011;62744;56.802;23.964;2022-11-03T09:35:59;9.52;;;4.38;;
73437;SDS011;62744;56.802;23.964;2022-11-03T09:38:27;13.10;;;6.00;;
73437;SDS011;62744;56.802;23.964;2022-11-03T09:40:55;16.23;;;7.68;;
73437;SDS011;62744;56.802;23.964;2022-11-03T09:43:22;15.02;;;6.47;;
73437;SDS011;62744;56.802;23.964;2022-11-03T09:45:50;9.45;;;4.35;;
73437;SDS011;62744;56.802;23.964;2022-11-03T09:48:18;11.55;;;4.78;;
73437;SDS011;62744;56.802;23.964;2022-11-03T09:50:47;9.40;;;3.55;;
73437;SDS011;62744;56.802;23.964;2022-11-03T09:53:19;8.57;;;3.42;;
73437;SDS011;62744;56.802;23.964;2022-11-03T09:55:47;11.95;;;3.70;;
73437;SDS011;62744;56.802;23.964;2022-11-03T09:58:15;8.65;;;3.38;;
73437;SDS011;62744;56.802;23.964;2022-11-03T10:00:43;8.80;;;4.05;;
73437;SDS011;62744;56.802;23.964;2022-11-03T10:03:12;6.80;;;3.75;;
73437;SDS011;62744;56.802;23.964;2022-11-03T10:05:46;9.85;;;3.33;;
73437;SDS011;62744;56.802;23.964;2022-11-03T10:10:50;7.90;;;3.03;;
73437;SDS011;62744;56.802;23.964;2022-11-03T10:13:29;6.63;;;2.78;;
73437;SDS011;62744;56.802;23.964;2022-11-03T10:16:10;7.75;;;3.22;;
73437;SDS011;62744;56.802;23.964;2022-11-03T10:18:42;7.75;;;3.22;;
73437;SDS011;62744;56.802;23.964;2022-11-03T10:21:14;9.30;;;3.65;;
73437;SDS011;62744;56.802;23.964;2022-11-03T10:23:41;11.48;;;3.00;;
73437;SDS011;62744;56.802;23.964;2022-11-03T10:26:12;7.20;;;2.45;;
73437;SDS011;62744;56.802;23.964;2022-11-03T10:28:57;8.55;;;3.22;;
73437;SDS011;62744;56.802;23.964;2022-11-03T10:31:32;9.93;;;3.40;;
73437;SDS011;62744;56.802;23.964;2022-11-03T10:34:05;9.13;;;4.00;;
73437;SDS011;62744;56.802;23.964;2022-11-03T10:39:56;9.10;;;4.25;;
73437;SDS011;62744;56.802;23.964;2022-11-03T10:48:01;8.65;;;3.03;;
73437;SDS011;62744;56.802;23.964;2022-11-03T10:50:35;7.53;;;2.40;;
73437;SDS011;62744;56.802;23.964;2022-11-03T10:53:05;18.20;;;6.65;;
73437;SDS011;62744;56.802;23.964;2022-11-03T10:55:44;6.22;;;2.78;;
73437;SDS011;62744;56.802;23.964;2022-11-03T10:58:12;6.10;;;2.35;;
73437;SDS011;62744;56.802;23.964;2022-11-03T11:00:40;6.35;;;2.50;;
73437;SDS011;62744;56.802;23.964;2022-11-03T11:03:09;7.85;;;2.63;;
73437;SDS011;62744;56.802;23.964;2022-11-03T11:05:45;6.40;;;2.88;;
73437;SDS011;62744;56.802;23.964;2022-11-03T11:08:13;5.85;;;2.90;;
73437;SDS011;62744;56.802;23.964;2022-11-03T11:10:48;6.00;;;2.50;;
73437;SDS011;62744;56.802;23.964;2022-11-03T11:15:54;6.57;;;3.08;;
73437;SDS011;62744;56.802;23.964;2022-11-03T11:20:54;6.43;;;2.70;;
73437;SDS011;62744;56.802;23.964;2022-11-03T11:28:43;6.55;;;2.33;;
73437;SDS011;62744;56.802;23.964;2022-11-03T11:31:34;7.45;;;3.92;;
73437;SDS011;62744;56.802;23.964;2022-11-03T11:36:48;6.75;;;2.80;;
73437;SDS011;62744;56.802;23.964;2022-11-03T11:39:42;4.72;;;1.50;;
73437;SDS011;62744;56.802;23.964;2022-11-03T11:42:11;6.55;;;2.58;;
73437;SDS011;62744;56.802;23.964;2022-11-03T11:55:16;5.85;;;2.42;;
73437;SDS011;62744;56.802;23.964;2022-11-03T11:57:50;13.32;;;4.38;;
73437;SDS011;62744;56.802;23.964;2022-11-03T12:02:48;7.82;;;3.67;;
73437;SDS011;62744;56.802;23.964;2022-11-03T12:05:18;6.25;;;2.60;;
73437;SDS011;62744;56.802;23.964;2022-11-03T12:07:50;6.82;;;2.50;;
73437;SDS011;62744;56.802;23.964;2022-11-03T12:10:18;9.05;;;3.80;;
73437;SDS011;62744;56.802;23.964;2022-11-03T12:12:54;20.20;;;6.85;;
73437;SDS011;62744;56.802;23.964;2022-11-03T12:26:59;24.70;;;6.18;;
73437;SDS011;62744;56.802;23.964;2022-11-03T12:29:27;47.30;;;9.88;;
73437;SDS011;62744;56.802;23.964;2022-11-03T12:31:55;15.50;;;4.75;;
73437;SDS011;62744;56.802;23.964;2022-11-03T12:34:22;22.73;;;5.80;;
73437;SDS011;62744;56.802;23.964;2022-11-03T12:36:50;9.15;;;3.38;;
73437;SDS011;62744;56.802;23.964;2022-11-03T12:39:21;9.18;;;3.13;;
73437;SDS011;62744;56.802;23.964;2022-11-03T12:41:49;8.77;;;2.80;;
73437;SDS011;62744;56.802;23.964;2022-11-03T12:44:16;8.25;;;3.00;;
73437;SDS011;62744;56.802;23.964;2022-11-03T12:46:44;6.35;;;2.33;;
73437;SDS011;62744;56.802;23.964;2022-11-03T12:49:11;11.90;;;3.97;;
73437;SDS011;62744;56.802;23.964;2022-11-03T12:51:39;21.45;;;6.93;;
73437;SDS011;62744;56.802;23.964;2022-11-03T12:54:06;13.02;;;4.03;;
73437;SDS011;62744;56.802;23.964;2022-11-03T12:56:34;6.00;;;2.53;;
73437;SDS011;62744;56.802;23.964;2022-11-03T12:59:01;8.60;;;3.50;;
73437;SDS011;62744;56.802;23.964;2022-11-03T13:01:29;7.65;;;2.80;;
73437;SDS011;62744;56.802;23.964;2022-11-03T13:03:59;9.90;;;3.72;;
73437;SDS011;62744;56.802;23.964;2022-11-03T13:06:26;9.10;;;3.70;;
73437;SDS011;62744;56.802;23.964;2022-11-03T13:08:54;6.97;;;2.63;;
73437;SDS011;62744;56.802;23.964;2022-11-03T13:11:21;12.07;;;4.40;;
73437;SDS011;62744;56.802;23.964;2022-11-03T13:14:07;7.82;;;3.30;;
73437;SDS011;62744;56.802;23.964;2022-11-03T13:16:35;12.63;;;3.67;;
73437;SDS011;62744;56.802;23.964;2022-11-03T13:19:02;7.88;;;3.35;;
73437;SDS011;62744;56.802;23.964;2022-11-03T13:21:30;14.60;;;4.25;;
73437;SDS011;62744;56.802;23.964;2022-11-03T13:23:57;10.57;;;4.53;;
73437;SDS011;62744;56.802;23.964;2022-11-03T13:26:25;14.80;;;6.78;;
73437;SDS011;62744;56.802;23.964;2022-11-03T13:28:52;15.43;;;7.22;;
73437;SDS011;62744;56.802;23.964;2022-11-03T13:31:20;12.32;;;4.63;;
73437;SDS011;62744;56.802;23.964;2022-11-03T13:33:47;9.02;;;3.80;;
73437;SDS011;62744;56.802;23.964;2022-11-03T13:36:16;8.48;;;4.25;;
73437;SDS011;62744;56.802;23.964;2022-11-03T13:38:44;9.13;;;3.78;;
73437;SDS011;62744;56.802;23.964;2022-11-03T13:41:11;10.95;;;4.30;;
73437;SDS011;62744;56.802;23.964;2022-11-03T13:43:39;9.73;;;5.07;;
73437;SDS011;62744;56.802;23.964;2022-11-03T13:46:06;9.85;;;4.55;;
73437;SDS011;62744;56.802;23.964;2022-11-03T13:48:34;11.50;;;5.40;;
73437;SDS011;62744;56.802;23.964;2022-11-03T13:51:21;9.05;;;3.75;;
73437;SDS011;62744;56.802;23.964;2022-11-03T13:53:49;10.80;;;4.13;;
73437;SDS011;62744;56.802;23.964;2022-11-03T13:56:36;8.80;;;3.55;;
73437;SDS011;62744;56.802;23.964;2022-11-03T13:59:24;8.45;;;4.38;;
73437;SDS011;62744;56.802;23.964;2022-11-03T14:01:53;7.60;;;3.50;;
73437;SDS011;62744;56.802;23.964;2022-11-03T14:04:40;8.57;;;3.50;;
73437;SDS011;62744;56.802;23.964;2022-11-03T14:07:09;9.27;;;3.60;;
73437;SDS011;62744;56.802;23.964;2022-11-03T14:09:37;8.93;;;3.75;;
73437;SDS011;62744;56.802;23.964;2022-11-03T14:12:04;10.43;;;4.55;;
73437;SDS011;62744;56.802;23.964;2022-11-03T14:14:50;9.70;;;4.07;;
73437;SDS011;62744;56.802;23.964;2022-11-03T14:17:18;7.88;;;3.78;;
73437;SDS011;62744;56.802;23.964;2022-11-03T14:19:46;8.00;;;3.72;;
73437;SDS011;62744;56.802;23.964;2022-11-03T14:22:18;7.63;;;4.00;;
73437;SDS011;62744;56.802;23.964;2022-11-03T14:24:46;8.45;;;3.78;;
73437;SDS011;62744;56.802;23.964;2022-11-03T14:27:15;21.23;;;10.68;;
73437;SDS011;62744;56.802;23.964;2022-11-03T14:29:44;19.23;;;9.27;;
73437;SDS011;62744;56.802;23.964;2022-11-03T14:32:15;12.75;;;5.47;;
73437;SDS011;62744;56.802;23.964;2022-11-03T14:34:43;9.43;;;4.78;;
73437;SDS011;62744;56.802;23.964;2022-11-03T14:37:11;10.75;;;4.60;;
73437;SDS011;62744;56.802;23.964;2022-11-03T14:39:40;8.93;;;4.50;;
73437;SDS011;62744;56.802;23.964;2022-11-03T14:42:09;13.35;;;7.03;;
73437;SDS011;62744;56.802;23.964;2022-11-03T14:44:42;11.35;;;6.10;;
73437;SDS011;62744;56.802;23.964;2022-11-03T14:47:12;11.93;;;5.50;;
73437;SDS011;62744;56.802;23.964;2022-11-03T14:49:43;12.07;;;6.38;;
73437;SDS011;62744;56.802;23.964;2022-11-03T14:52:12;11.38;;;6.10;;
73437;SDS011;62744;56.802;23.964;2022-11-03T14:54:39;10.32;;;5.05;;
73437;SDS011;62744;56.802;23.964;2022-11-03T14:57:07;9.05;;;5.03;;
73437;SDS011;62744;56.802;23.964;2022-11-03T14:59:35;9.52;;;5.10;;
73437;SDS011;62744;56.802;23.964;2022-11-03T15:02:03;10.70;;;5.60;;
73437;SDS011;62744;56.802;23.964;2022-11-03T15:04:32;12.63;;;5.65;;
73437;SDS011;62744;56.802;23.964;2022-11-03T15:06:59;10.75;;;5.18;;
73437;SDS011;62744;56.802;23.964;2022-11-03T15:09:27;9.65;;;5.13;;
73437;SDS011;62744;56.802;23.964;2022-11-03T15:11:54;10.60;;;5.78;;
73437;SDS011;62744;56.802;23.964;2022-11-03T15:14:22;14.55;;;6.63;;
73437;SDS011;62744;56.802;23.964;2022-11-03T15:16:49;20.77;;;10.25;;
73437;SDS011;62744;56.802;23.964;2022-11-03T15:19:17;23.67;;;11.90;;
73437;SDS011;62744;56.802;23.964;2022-11-03T15:21:45;24.55;;;11.32;;
73437;SDS011;62744;56.802;23.964;2022-11-03T15:24:13;27.20;;;13.38;;
73437;SDS011;62744;56.802;23.964;2022-11-03T15:27:00;29.05;;;13.43;;
73437;SDS011;62744;56.802;23.964;2022-11-03T15:29:28;23.95;;;10.98;;
73437;SDS011;62744;56.802;23.964;2022-11-03T15:31:56;29.25;;;13.32;;
73437;SDS011;62744;56.802;23.964;2022-11-03T15:34:23;21.60;;;10.43;;
73437;SDS011;62744;56.802;23.964;2022-11-03T15:36:51;19.35;;;9.25;;
73437;SDS011;62744;56.802;23.964;2022-11-03T15:39:18;20.95;;;10.45;;
73437;SDS011;62744;56.802;23.964;2022-11-03T15:41:46;24.83;;;12.77;;
73437;SDS011;62744;56.802;23.964;2022-11-03T15:44:13;31.60;;;13.52;;
73437;SDS011;62744;56.802;23.964;2022-11-03T15:46:41;98.28;;;54.50;;
73437;SDS011;62744;56.802;23.964;2022-11-03T15:49:08;28.58;;;15.50;;
73437;SDS011;62744;56.802;23.964;2022-11-03T15:51:36;24.58;;;11.63;;
73437;SDS011;62744;56.802;23.964;2022-11-03T15:54:03;27.65;;;12.98;;
73437;SDS011;62744;56.802;23.964;2022-11-03T15:56:32;29.33;;;13.20;;
73437;SDS011;62744;56.802;23.964;2022-11-03T15:59:00;27.10;;;13.25;;
73437;SDS011;62744;56.802;23.964;2022-11-03T16:01:28;29.48;;;14.93;;
73437;SDS011;62744;56.802;23.964;2022-11-03T16:03:55;25.08;;;15.50;;
73437;SDS011;62744;56.802;23.964;2022-11-03T16:06:23;24.85;;;14.73;;
73437;SDS011;62744;56.802;23.964;2022-11-03T16:09:10;27.90;;;14.18;;
73437;SDS011;62744;56.802;23.964;2022-11-03T16:11:38;27.25;;;14.30;;